createdAt,value
2019-01-04T00:00:13.571Z,819.79
2019-01-04T00:01:13.567Z,819.80
2019-01-04T00:02:13.569Z,819.83
2019-01-04T00:03:13.570Z,819.83
2019-01-04T00:04:13.575Z,819.80
2019-01-04T00:05:13.574Z,819.77
2019-01-04T00:06:13.574Z,819.75
2019-01-04T00:07:13.580Z,819.69
2019-01-04T00:08:13.576Z,819.78
2019-01-04T00:09:13.574Z,819.88
2019-01-04T00:10:13.575Z,819.91
2019-01-04T00:11:13.577Z,819.94
2019-01-04T00:12:13.579Z,819.93
2019-01-04T00:13:13.578Z,819.90
2019-01-04T00:14:13.578Z,819.86
2019-01-04T00:15:13.581Z,819.82
2019-01-04T00:16:13.581Z,819.85
2019-01-04T00:17:13.584Z,819.82
2019-01-04T00:18:13.583Z,819.91
2019-01-04T00:19:13.586Z,819.89
2019-01-04T00:20:13.586Z,819.89
2019-01-04T00:21:13.589Z,819.86
2019-01-04T00:22:13.587Z,819.85
2019-01-04T00:23:13.590Z,819.83
2019-01-04T00:24:13.590Z,819.80
2019-01-04T00:25:13.592Z,819.83
2019-01-04T00:26:13.592Z,819.82
2019-01-04T00:27:13.595Z,819.87
2019-01-04T00:28:13.594Z,819.93
2019-01-04T00:29:13.595Z,819.84
2019-01-04T00:30:13.596Z,819.86
2019-01-04T00:31:13.597Z,819.82
2019-01-04T00:32:13.598Z,819.81
2019-01-04T00:33:13.600Z,819.82
2019-01-04T00:34:13.599Z,819.84
2019-01-04T00:35:13.600Z,819.85
2019-01-04T00:36:13.604Z,819.86
2019-01-04T00:37:13.603Z,819.83
2019-01-04T00:38:13.602Z,819.80
2019-01-04T00:39:13.606Z,819.84
2019-01-04T00:40:13.607Z,819.90
2019-01-04T00:41:13.607Z,819.97
2019-01-04T00:42:13.607Z,819.82
2019-01-04T00:43:13.609Z,819.81
2019-01-04T00:44:13.613Z,819.73
2019-01-04T00:45:13.610Z,819.74
2019-01-04T00:46:13.610Z,819.79
2019-01-04T00:47:13.618Z,819.80
2019-01-04T00:48:13.620Z,819.74
2019-01-04T00:49:13.613Z,819.76
2019-01-04T00:50:13.620Z,819.72
2019-01-04T00:51:13.616Z,819.74
2019-01-04T00:52:13.620Z,819.77
2019-01-04T00:53:13.619Z,819.80
2019-01-04T00:54:13.621Z,819.87
2019-01-04T00:55:13.621Z,819.78
2019-01-04T00:56:13.622Z,819.77
2019-01-04T00:57:13.620Z,819.72
2019-01-04T00:58:13.622Z,819.79
2019-01-04T00:59:13.621Z,819.80
2019-01-04T01:00:13.623Z,819.85
2019-01-04T01:01:13.623Z,819.85
2019-01-04T01:02:13.623Z,819.87
2019-01-04T01:03:13.625Z,819.86
2019-01-04T01:04:13.627Z,819.88
2019-01-04T01:05:13.626Z,819.88
2019-01-04T01:06:13.625Z,819.87
2019-01-04T01:07:13.627Z,819.89
2019-01-04T01:08:13.628Z,819.92
2019-01-04T01:09:13.629Z,819.94
2019-01-04T01:10:13.630Z,819.97
2019-01-04T01:11:13.632Z,819.99
2019-01-04T01:12:13.632Z,820.01
2019-01-04T01:13:13.631Z,819.96
2019-01-04T01:14:13.633Z,820.03
2019-01-04T01:15:13.637Z,820.00
2019-01-04T01:16:13.633Z,820.06
2019-01-04T01:17:13.633Z,820.04
2019-01-04T01:18:13.639Z,819.97
2019-01-04T01:19:13.636Z,819.93
2019-01-04T01:20:13.638Z,820.00
2019-01-04T01:21:13.646Z,820.02
2019-01-04T01:22:13.639Z,819.99
2019-01-04T01:23:13.637Z,820.01
2019-01-04T01:24:13.639Z,819.96
2019-01-04T01:25:13.641Z,819.95
2019-01-04T01:26:13.640Z,819.98
2019-01-04T01:27:13.642Z,820.00
2019-01-04T01:28:13.643Z,820.00
2019-01-04T01:29:13.642Z,819.97
2019-01-04T01:30:13.642Z,820.02
2019-01-04T01:31:13.645Z,820.03
2019-01-04T01:32:13.644Z,820.06
2019-01-04T01:33:13.644Z,820.05
2019-01-04T01:34:13.647Z,820.02
2019-01-04T01:35:13.647Z,820.05
2019-01-04T01:36:13.647Z,820.05
2019-01-04T01:37:13.647Z,820.00
2019-01-04T01:38:13.648Z,819.97
2019-01-04T01:39:13.651Z,819.99
2019-01-04T01:40:13.652Z,820.02
2019-01-04T01:41:13.652Z,820.05
2019-01-04T01:42:13.650Z,820.06
2019-01-04T01:43:13.653Z,820.05
2019-01-04T01:44:13.656Z,820.00
2019-01-04T01:45:13.653Z,819.95
2019-01-04T01:46:13.652Z,819.99
2019-01-04T01:47:13.655Z,820.05
2019-01-04T01:48:13.655Z,820.07
2019-01-04T01:49:13.658Z,820.08
2019-01-04T01:50:13.662Z,820.05
2019-01-04T01:51:13.657Z,820.05
2019-01-04T01:52:13.658Z,820.09
2019-01-04T01:53:13.658Z,820.06
2019-01-04T01:54:13.659Z,820.12
2019-01-04T01:55:13.661Z,820.13
2019-01-04T01:56:13.662Z,820.14
2019-01-04T01:57:13.663Z,820.17
2019-01-04T01:58:13.662Z,820.15
2019-01-04T01:59:13.662Z,820.10
2019-01-04T02:00:13.664Z,820.08
2019-01-04T02:01:13.667Z,820.06
2019-01-04T02:02:13.664Z,820.09
2019-01-04T02:03:13.663Z,820.05
2019-01-04T02:04:13.666Z,820.10
2019-01-04T02:05:13.669Z,820.15
2019-01-04T02:06:13.667Z,820.15
2019-01-04T02:07:13.664Z,820.18
2019-01-04T02:08:13.674Z,820.09
2019-01-04T02:09:13.668Z,820.07
2019-01-04T02:10:13.678Z,820.07
2019-01-04T02:11:13.669Z,820.04
2019-01-04T02:12:13.669Z,820.04
2019-01-04T02:13:13.669Z,820.07
2019-01-04T02:14:13.670Z,820.10
2019-01-04T02:15:13.671Z,820.08
2019-01-04T02:16:13.671Z,820.03
2019-01-04T02:17:13.675Z,819.96
2019-01-04T02:18:13.673Z,819.96
2019-01-04T02:19:13.674Z,819.92
2019-01-04T02:20:13.676Z,819.96
2019-01-04T02:21:13.674Z,819.98
2019-01-04T02:22:13.677Z,819.96
2019-01-04T02:23:13.678Z,819.94
2019-01-04T02:24:13.679Z,819.89
2019-01-04T02:25:13.678Z,819.89
2019-01-04T02:26:13.677Z,819.91
2019-01-04T02:27:13.678Z,819.91
2019-01-04T02:28:13.678Z,819.90
2019-01-04T02:29:13.684Z,819.87
2019-01-04T02:30:13.683Z,819.84
2019-01-04T02:31:13.682Z,819.79
2019-01-04T02:32:13.683Z,819.86
2019-01-04T02:33:13.680Z,819.86
2019-01-04T02:34:13.687Z,819.85
2019-01-04T02:35:13.684Z,819.84
2019-01-04T02:36:13.686Z,819.80
2019-01-04T02:37:13.685Z,819.81
2019-01-04T02:38:13.686Z,819.84
2019-01-04T02:39:13.687Z,819.89
2019-01-04T02:40:13.689Z,819.91
2019-01-04T02:41:13.691Z,819.90
2019-01-04T02:42:13.687Z,819.89
2019-01-04T02:43:13.690Z,819.91
2019-01-04T02:44:13.688Z,819.88
2019-01-04T02:45:13.691Z,819.82
2019-01-04T02:46:13.737Z,819.88
2019-01-04T02:47:13.692Z,819.90
2019-01-04T02:48:13.690Z,819.88
2019-01-04T02:49:13.689Z,819.85
2019-01-04T02:50:13.691Z,819.83
2019-01-04T02:51:13.692Z,819.76
2019-01-04T02:52:13.692Z,819.77
2019-01-04T02:53:13.693Z,819.83
2019-01-04T02:54:13.692Z,819.83
2019-01-04T02:55:13.694Z,819.80
2019-01-04T02:56:13.693Z,819.81
2019-01-04T02:57:13.692Z,819.79
2019-01-04T02:58:13.694Z,819.76
2019-01-04T02:59:13.696Z,819.73
2019-01-04T03:00:13.696Z,819.78
2019-01-04T03:01:13.698Z,819.83
2019-01-04T03:02:13.696Z,819.81
2019-01-04T03:03:13.696Z,819.77
2019-01-04T03:04:13.697Z,819.69
2019-01-04T03:05:13.703Z,819.69
2019-01-04T03:06:13.697Z,819.65
2019-01-04T03:07:13.698Z,819.63
2019-01-04T03:08:13.700Z,819.66
2019-01-04T03:09:13.700Z,819.73
2019-01-04T03:10:13.698Z,819.70
2019-01-04T03:11:13.702Z,819.68
2019-01-04T03:12:13.701Z,819.59
2019-01-04T03:13:13.698Z,819.60
2019-01-04T03:14:13.701Z,819.66
2019-01-04T03:15:13.704Z,819.62
2019-01-04T03:16:13.702Z,819.65
2019-01-04T03:17:13.700Z,819.67
2019-01-04T03:18:13.703Z,819.64
2019-01-04T03:19:13.706Z,819.61
2019-01-04T03:20:13.703Z,819.62
2019-01-04T03:21:13.702Z,819.60
2019-01-04T03:22:13.704Z,819.57
2019-01-04T03:23:13.707Z,819.62
2019-01-04T03:24:13.704Z,819.62
2019-01-04T03:25:13.703Z,819.63
2019-01-04T03:26:13.705Z,819.60
2019-01-04T03:27:13.704Z,819.55
2019-01-04T03:28:13.706Z,819.52
2019-01-04T03:29:13.707Z,819.56
2019-01-04T03:30:13.707Z,819.55
2019-01-04T03:31:13.714Z,819.53
2019-01-04T03:32:13.717Z,819.55
2019-01-04T03:33:13.720Z,819.51
2019-01-04T03:34:13.710Z,819.52
2019-01-04T03:35:13.710Z,819.47
2019-01-04T03:36:13.708Z,819.44
2019-01-04T03:37:13.708Z,819.40
2019-01-04T03:38:13.713Z,819.41
2019-01-04T03:39:13.711Z,819.45
2019-01-04T03:40:13.711Z,819.43
2019-01-04T03:41:13.714Z,819.43
2019-01-04T03:42:13.714Z,819.47
2019-01-04T03:43:13.721Z,819.44
2019-01-04T03:44:13.715Z,819.43
2019-01-04T03:45:13.714Z,819.41
2019-01-04T03:46:13.716Z,819.40
2019-01-04T03:47:13.717Z,819.40
2019-01-04T03:48:13.717Z,819.33
2019-01-04T03:49:13.715Z,819.28
2019-01-04T03:50:13.716Z,819.23
2019-01-04T03:51:13.715Z,819.20
2019-01-04T03:52:13.718Z,819.26
2019-01-04T03:53:13.718Z,819.23
2019-01-04T03:54:13.717Z,819.25
2019-01-04T03:55:13.716Z,819.25
2019-01-04T03:56:13.719Z,819.22
2019-01-04T03:57:13.742Z,819.28
2019-01-04T03:58:13.721Z,819.31
2019-01-04T03:59:13.719Z,819.37
2019-01-04T04:00:13.719Z,819.39
2019-01-04T04:01:13.718Z,819.35
2019-01-04T04:02:13.720Z,819.29
2019-01-04T04:03:13.720Z,819.30
2019-01-04T04:04:13.774Z,819.24
2019-01-04T04:05:13.722Z,819.20
2019-01-04T04:06:13.720Z,819.22
2019-01-04T04:07:13.722Z,819.26
2019-01-04T04:08:13.726Z,819.27
2019-01-04T04:09:13.735Z,819.22
2019-01-04T04:10:13.723Z,819.24
2019-01-04T04:11:13.722Z,819.22
2019-01-04T04:12:13.722Z,819.22
2019-01-04T04:13:13.723Z,819.21
2019-01-04T04:14:13.723Z,819.30
2019-01-04T04:15:13.722Z,819.33
2019-01-04T04:16:13.726Z,819.35
2019-01-04T04:17:13.723Z,819.30
2019-01-04T04:18:13.725Z,819.35
2019-01-04T04:19:13.725Z,819.36
2019-01-04T04:20:13.729Z,819.34
2019-01-04T04:21:13.724Z,819.28
2019-01-04T04:22:13.726Z,819.26
2019-01-04T04:23:13.807Z,819.31
2019-01-04T04:24:13.777Z,819.28
2019-01-04T04:25:13.804Z,819.28
2019-01-04T04:26:13.785Z,819.31
2019-01-04T04:27:13.766Z,819.32
2019-01-04T04:28:13.741Z,819.32
2019-01-04T04:29:13.724Z,819.33
2019-01-04T04:30:13.756Z,819.35
2019-01-04T04:31:13.727Z,819.32
2019-01-04T04:32:13.733Z,819.36
2019-01-04T04:33:13.728Z,819.42
2019-01-04T04:34:13.729Z,819.43
2019-01-04T04:35:13.727Z,819.39
2019-01-04T04:36:13.729Z,819.35
2019-01-04T04:37:13.730Z,819.33
2019-01-04T04:38:13.728Z,819.36
2019-01-04T04:39:13.730Z,819.37
2019-01-04T04:40:13.729Z,819.29
2019-01-04T04:41:13.728Z,819.27
2019-01-04T04:42:13.732Z,819.24
2019-01-04T04:43:13.731Z,819.25
2019-01-04T04:44:13.731Z,819.28
2019-01-04T04:45:13.730Z,819.35
2019-01-04T04:46:13.729Z,819.36
2019-01-04T04:47:13.731Z,819.29
2019-01-04T04:48:13.791Z,819.28
2019-01-04T04:49:13.796Z,819.30
2019-01-04T04:50:13.792Z,819.25
2019-01-04T04:51:13.781Z,819.24
2019-01-04T04:52:13.764Z,819.29
2019-01-04T04:53:13.733Z,819.28
2019-01-04T04:54:13.790Z,819.20
2019-01-04T04:55:13.769Z,819.18
2019-01-04T04:56:13.744Z,819.13
2019-01-04T04:57:13.759Z,819.17
2019-01-04T04:58:13.794Z,819.26
2019-01-04T04:59:13.789Z,819.26
2019-01-04T05:00:13.738Z,819.24
2019-01-04T05:01:13.745Z,819.23
2019-01-04T05:02:13.799Z,819.19
2019-01-04T05:03:13.747Z,819.19
2019-01-04T05:04:13.766Z,819.25
2019-01-04T05:05:13.735Z,819.30
2019-01-04T05:06:13.737Z,819.33
2019-01-04T05:07:13.814Z,819.29
2019-01-04T05:08:13.812Z,819.32
2019-01-04T05:09:13.796Z,819.32
2019-01-04T05:10:13.744Z,819.33
2019-01-04T05:11:13.798Z,819.29
2019-01-04T05:12:13.812Z,819.25
2019-01-04T05:13:13.820Z,819.35
2019-01-04T05:14:13.807Z,819.42
2019-01-04T05:15:13.789Z,819.45
2019-01-04T05:16:13.765Z,819.44
2019-01-04T05:17:13.804Z,819.39
2019-01-04T05:18:13.831Z,819.39
2019-01-04T05:19:13.787Z,819.39
2019-01-04T05:20:13.745Z,819.44
2019-01-04T05:21:13.767Z,819.44
2019-01-04T05:22:13.810Z,819.47
2019-01-04T05:23:13.760Z,819.45
2019-01-04T05:24:13.801Z,819.43
2019-01-04T05:25:13.796Z,819.42
2019-01-04T05:26:13.749Z,819.38
2019-01-04T05:27:13.814Z,819.33
2019-01-04T05:28:13.774Z,819.31
2019-01-04T05:29:13.745Z,819.34
2019-01-04T05:30:13.748Z,819.40
2019-01-04T05:31:13.748Z,819.45
2019-01-04T05:32:13.750Z,819.41
2019-01-04T05:33:13.749Z,819.43
2019-01-04T05:34:13.760Z,819.39
2019-01-04T05:35:13.755Z,819.44
2019-01-04T05:36:13.753Z,819.46
2019-01-04T05:37:13.751Z,819.49
2019-01-04T05:38:13.753Z,819.47
2019-01-04T05:39:13.757Z,819.42
2019-01-04T05:40:14.119Z,819.42
2019-01-04T05:41:13.759Z,819.40
2019-01-04T05:42:13.761Z,819.43
2019-01-04T05:43:13.758Z,819.47
2019-01-04T05:44:13.759Z,819.46
2019-01-04T05:45:13.759Z,819.46
2019-01-04T05:46:13.761Z,819.44
2019-01-04T05:47:13.762Z,819.49
2019-01-04T05:48:13.761Z,819.49
2019-01-04T05:49:13.762Z,819.45
2019-01-04T05:50:13.763Z,819.41
2019-01-04T05:51:13.766Z,819.40
2019-01-04T05:52:13.766Z,819.39
2019-01-04T05:53:13.767Z,819.42
2019-01-04T05:54:13.769Z,819.42
2019-01-04T05:55:13.770Z,819.48
2019-01-04T05:56:13.769Z,819.51
2019-01-04T05:57:13.771Z,819.49
2019-01-04T05:58:13.773Z,819.45
2019-01-04T05:59:13.771Z,819.46
2019-01-04T06:00:13.775Z,819.44
2019-01-04T06:01:13.775Z,819.40
2019-01-04T06:02:13.780Z,819.46
2019-01-04T06:03:13.777Z,819.46
2019-01-04T06:04:13.777Z,819.45
2019-01-04T06:05:13.779Z,819.46
2019-01-04T06:06:13.780Z,819.46
2019-01-04T06:07:13.780Z,819.47
2019-01-04T06:08:13.782Z,819.47
2019-01-04T06:09:13.780Z,819.53
2019-01-04T06:10:13.784Z,819.46
2019-01-04T06:11:13.788Z,819.46
2019-01-04T06:12:13.784Z,819.46
2019-01-04T06:13:13.790Z,819.48
2019-01-04T06:14:13.787Z,819.51
2019-01-04T06:15:13.789Z,819.49
2019-01-04T06:16:13.788Z,819.50
2019-01-04T06:17:13.792Z,819.54
2019-01-04T06:18:13.789Z,819.51
2019-01-04T06:19:13.798Z,819.48
2019-01-04T06:20:13.797Z,819.49
2019-01-04T06:21:13.792Z,819.53
2019-01-04T06:22:13.793Z,819.53
2019-01-04T06:23:13.794Z,819.55
2019-01-04T06:24:13.798Z,819.53
2019-01-04T06:25:13.806Z,819.56
2019-01-04T06:26:13.797Z,819.55
2019-01-04T06:27:13.801Z,819.63
2019-01-04T06:28:13.802Z,819.67
2019-01-04T06:29:13.801Z,819.66
2019-01-04T06:30:13.804Z,819.59
2019-01-04T06:31:13.803Z,819.56
2019-01-04T06:32:13.807Z,819.59
2019-01-04T06:33:13.808Z,819.64
2019-01-04T06:34:13.807Z,819.65
2019-01-04T06:35:13.812Z,819.65
2019-01-04T06:36:13.812Z,819.67
2019-01-04T06:37:13.812Z,819.65
2019-01-04T06:38:13.811Z,819.65
2019-01-04T06:39:13.813Z,819.63
2019-01-04T06:40:13.814Z,819.64
2019-01-04T06:41:13.815Z,819.65
2019-01-04T06:42:13.817Z,819.65
2019-01-04T06:43:13.819Z,819.61
2019-01-04T06:44:13.820Z,819.62
2019-01-04T06:45:13.822Z,819.66
2019-01-04T06:46:13.823Z,819.73
2019-01-04T06:47:13.827Z,819.75
2019-01-04T06:48:13.826Z,819.73
2019-01-04T06:49:13.837Z,819.71
2019-01-04T06:50:13.828Z,819.70
2019-01-04T06:51:13.829Z,819.68
2019-01-04T06:52:13.835Z,819.68
2019-01-04T06:53:13.831Z,819.72
2019-01-04T06:54:13.834Z,819.75
2019-01-04T06:55:13.835Z,819.74
2019-01-04T06:56:13.836Z,819.79
2019-01-04T06:57:13.837Z,819.72
2019-01-04T06:58:13.842Z,819.71
2019-01-04T06:59:13.840Z,819.75
2019-01-04T07:00:13.845Z,819.81
2019-01-04T07:01:13.844Z,819.85
2019-01-04T07:02:13.846Z,819.89
2019-01-04T07:03:13.847Z,819.84
2019-01-04T07:04:13.848Z,819.83
2019-01-04T07:05:13.852Z,819.77
2019-01-04T07:06:13.852Z,819.77
2019-01-04T07:07:13.854Z,819.81
2019-01-04T07:08:13.855Z,819.84
2019-01-04T07:09:13.856Z,819.86
2019-01-04T07:10:13.858Z,819.80
2019-01-04T07:11:13.860Z,819.81
2019-01-04T07:12:13.860Z,819.85
2019-01-04T07:13:13.862Z,819.81
2019-01-04T07:14:13.864Z,819.81
2019-01-04T07:15:13.863Z,819.80
2019-01-04T07:16:13.876Z,819.82
2019-01-04T07:17:14.043Z,819.80
2019-01-04T07:18:13.869Z,819.76
2019-01-04T07:19:13.873Z,819.79
2019-01-04T07:20:13.872Z,819.84
2019-01-04T07:21:13.879Z,819.78
2019-01-04T07:22:13.875Z,819.76
2019-01-04T07:23:13.899Z,819.82
2019-01-04T07:24:13.882Z,819.82
2019-01-04T07:25:13.887Z,819.86
2019-01-04T07:26:13.941Z,819.84
2019-01-04T07:27:13.884Z,819.80
2019-01-04T07:28:13.887Z,819.75
2019-01-04T07:29:13.907Z,819.79
2019-01-04T07:30:13.912Z,819.89
2019-01-04T07:31:13.941Z,819.85
2019-01-04T07:32:13.914Z,819.86
2019-01-04T07:33:13.940Z,819.84
2019-01-04T07:34:13.899Z,819.86
2019-01-04T07:35:13.957Z,819.88
2019-01-04T07:36:13.912Z,819.85
2019-01-04T07:37:13.950Z,819.83
2019-01-04T07:38:13.902Z,819.81
2019-01-04T07:39:13.914Z,819.81
2019-01-04T07:40:13.943Z,819.84
2019-01-04T07:41:13.938Z,819.84
2019-01-04T07:42:13.927Z,819.92
2019-01-04T07:43:16.617Z,819.98
2019-01-04T07:44:13.912Z,819.90
2019-01-04T07:45:13.927Z,819.86
2019-01-04T07:46:13.968Z,819.85
2019-01-04T07:47:13.946Z,819.92
2019-01-04T07:48:13.954Z,819.98
2019-01-04T07:49:13.926Z,820.01
2019-01-04T07:50:13.920Z,819.97
2019-01-04T07:51:13.968Z,819.95
2019-01-04T07:52:13.971Z,819.94
2019-01-04T07:53:13.931Z,820.03
2019-01-04T07:54:13.948Z,820.04
2019-01-04T07:55:13.991Z,820.04
2019-01-04T07:56:13.933Z,820.01
2019-01-04T07:57:13.954Z,820.07
2019-01-04T07:58:13.962Z,820.09
2019-01-04T07:59:13.966Z,820.03
2019-01-04T08:00:13.988Z,820.00
2019-01-04T08:01:13.950Z,820.03
2019-01-04T08:02:13.990Z,820.09
2019-01-04T08:03:13.947Z,820.07
2019-01-04T08:04:13.993Z,820.01
2019-01-04T08:05:13.984Z,820.03
2019-01-04T08:06:14.006Z,819.99
2019-01-04T08:07:14.002Z,820.05
2019-01-04T08:08:13.990Z,820.10
2019-01-04T08:09:13.949Z,820.05
2019-01-04T08:10:13.967Z,819.99
2019-01-04T08:11:13.972Z,820.02
2019-01-04T08:12:14.005Z,820.03
2019-01-04T08:13:13.962Z,820.04
2019-01-04T08:14:13.970Z,820.04
2019-01-04T08:15:13.958Z,820.09
2019-01-04T08:16:14.046Z,820.11
2019-01-04T08:17:14.013Z,820.09
2019-01-04T08:18:13.972Z,820.16
2019-01-04T08:19:14.069Z,820.19
2019-01-04T08:20:14.043Z,820.11
2019-01-04T08:21:14.045Z,820.16
2019-01-04T08:22:14.032Z,820.21
2019-01-04T08:23:13.999Z,820.23
2019-01-04T08:24:14.056Z,820.28
2019-01-04T08:25:14.052Z,820.24
2019-01-04T08:26:14.068Z,820.23
2019-01-04T08:27:14.038Z,820.31
2019-01-04T08:28:14.081Z,820.31
2019-01-04T08:29:14.052Z,820.33
2019-01-04T08:30:14.049Z,820.34
2019-01-04T08:31:14.062Z,820.34
2019-01-04T08:32:14.000Z,820.31
2019-01-04T08:33:14.035Z,820.28
2019-01-04T08:34:14.074Z,820.38
2019-01-04T08:35:14.075Z,820.39
2019-01-04T08:36:13.995Z,820.33
2019-01-04T08:37:14.087Z,820.38
2019-01-04T08:38:14.067Z,820.38
2019-01-04T08:39:14.067Z,820.41
2019-01-04T08:40:14.091Z,820.44
2019-01-04T08:41:14.092Z,820.46
2019-01-04T08:42:14.100Z,820.48
2019-01-04T08:43:14.069Z,820.54
2019-01-04T08:44:14.073Z,820.52
2019-01-04T08:45:14.054Z,820.51
2019-01-04T08:46:14.007Z,820.46
2019-01-04T08:47:14.013Z,820.43
2019-01-04T08:48:14.018Z,820.50
2019-01-04T08:49:14.015Z,820.53
2019-01-04T08:50:14.016Z,820.56
2019-01-04T08:51:14.021Z,820.50
2019-01-04T08:52:14.017Z,820.53
2019-01-04T08:53:14.023Z,820.60
2019-01-04T08:54:14.026Z,820.58
2019-01-04T08:55:14.027Z,820.56
2019-01-04T08:56:14.027Z,820.61
2019-01-04T08:57:14.031Z,820.61
2019-01-04T08:58:14.035Z,820.59
2019-01-04T08:59:14.037Z,820.55
2019-01-04T09:00:14.040Z,820.59
2019-01-04T09:01:14.047Z,820.56
2019-01-04T09:02:14.048Z,820.57
2019-01-04T09:03:14.044Z,820.60
2019-01-04T09:04:14.049Z,820.61
2019-01-04T09:05:14.050Z,820.65
2019-01-04T09:06:14.061Z,820.69
2019-01-04T09:07:14.060Z,820.73
2019-01-04T09:08:14.064Z,820.66
2019-01-04T09:09:14.175Z,820.60
2019-01-04T09:10:14.065Z,820.57
2019-01-04T09:11:14.070Z,820.58
2019-01-04T09:12:14.082Z,820.64
2019-01-04T09:13:14.076Z,820.71
2019-01-04T09:14:14.081Z,820.77
2019-01-04T09:15:14.085Z,820.75
2019-01-04T09:16:14.085Z,820.74
2019-01-04T09:17:14.089Z,820.83
2019-01-04T09:18:14.094Z,820.81
2019-01-04T09:19:14.095Z,820.86
2019-01-04T09:20:14.100Z,820.83
2019-01-04T09:21:14.102Z,820.77
2019-01-04T09:22:14.107Z,820.72
2019-01-04T09:23:14.111Z,820.81
2019-01-04T09:24:14.129Z,820.89
2019-01-04T09:25:14.115Z,820.88
2019-01-04T09:26:14.122Z,820.80
2019-01-04T09:27:14.125Z,820.81
2019-01-04T09:28:18.047Z,820.81
2019-01-04T09:29:14.131Z,820.78
2019-01-04T09:30:14.137Z,820.84
2019-01-04T09:31:14.138Z,820.83
2019-01-04T09:32:14.142Z,820.84
2019-01-04T09:33:14.144Z,820.88
2019-01-04T09:34:14.146Z,820.87
2019-01-04T09:35:14.153Z,820.88
2019-01-04T09:36:14.154Z,820.95
2019-01-04T09:37:14.157Z,820.97
2019-01-04T09:38:14.163Z,821.04
2019-01-04T09:39:14.164Z,821.01
2019-01-04T09:40:14.174Z,820.96
2019-01-04T09:41:14.171Z,820.89
2019-01-04T09:42:14.176Z,820.91
2019-01-04T09:43:14.181Z,820.99
2019-01-04T09:44:14.185Z,821.07
2019-01-04T09:45:14.188Z,821.15
2019-01-04T09:46:14.190Z,821.08
2019-01-04T09:47:14.196Z,821.04
2019-01-04T09:48:14.198Z,821.08
2019-01-04T09:49:14.203Z,821.08
2019-01-04T09:50:14.204Z,821.04
2019-01-04T09:51:14.214Z,820.98
2019-01-04T09:52:14.216Z,820.96
2019-01-04T09:53:14.216Z,820.99
2019-01-04T09:54:14.220Z,821.00
2019-01-04T09:55:14.227Z,821.01
2019-01-04T09:56:14.230Z,820.97
2019-01-04T09:57:14.233Z,820.86
2019-01-04T09:58:14.238Z,820.88
2019-01-04T09:59:14.244Z,820.89
2019-01-04T10:00:14.249Z,820.90
2019-01-04T10:01:14.252Z,820.89
2019-01-04T10:02:14.256Z,820.93
2019-01-04T10:03:14.268Z,820.94
2019-01-04T10:04:14.264Z,820.89
2019-01-04T10:05:14.270Z,820.86
2019-01-04T10:06:14.273Z,820.81
2019-01-04T10:07:14.277Z,820.82
2019-01-04T10:08:14.287Z,820.82
2019-01-04T10:09:14.293Z,820.84
2019-01-04T10:10:14.293Z,820.91
2019-01-04T10:11:14.298Z,820.89
2019-01-04T10:12:14.310Z,820.82
2019-01-04T10:13:14.310Z,820.79
2019-01-04T10:14:14.311Z,820.83
2019-01-04T10:15:14.325Z,820.83
2019-01-04T10:16:14.324Z,820.91
2019-01-04T10:17:14.328Z,820.91
2019-01-04T10:18:14.335Z,820.83
2019-01-04T10:19:14.340Z,820.72
2019-01-04T10:20:14.346Z,820.70
2019-01-04T10:21:14.350Z,820.75
2019-01-04T10:22:14.357Z,820.85
2019-01-04T10:23:14.362Z,820.88
2019-01-04T10:24:14.367Z,820.82
2019-01-04T10:25:14.374Z,820.78
2019-01-04T10:26:14.378Z,820.73
2019-01-04T10:27:14.386Z,820.71
2019-01-04T10:28:14.390Z,820.76
2019-01-04T10:29:14.396Z,820.76
2019-01-04T10:30:14.405Z,820.77
2019-01-04T10:31:14.412Z,820.77
2019-01-04T10:32:14.418Z,820.77
2019-01-04T10:33:14.422Z,820.75
2019-01-04T10:34:14.431Z,820.76
2019-01-04T10:35:14.438Z,820.79
2019-01-04T10:36:14.445Z,820.81
2019-01-04T10:37:14.447Z,820.77
2019-01-04T10:38:14.457Z,820.75
2019-01-04T10:39:14.462Z,820.75
2019-01-04T10:40:14.469Z,820.72
2019-01-04T10:41:14.475Z,820.77
2019-01-04T10:42:14.481Z,820.71
2019-01-04T10:43:14.487Z,820.77
2019-01-04T10:44:14.496Z,820.79
2019-01-04T10:45:14.503Z,820.81
2019-01-04T10:46:14.505Z,820.84
2019-01-04T10:47:14.514Z,820.84
2019-01-04T10:48:14.519Z,820.84
2019-01-04T10:49:14.527Z,820.79
2019-01-04T10:50:14.534Z,820.79
2019-01-04T10:51:14.542Z,820.80
2019-01-04T10:52:14.548Z,820.69
2019-01-04T10:53:14.555Z,820.70
2019-01-04T10:54:14.560Z,820.74
2019-01-04T10:55:14.571Z,820.77
2019-01-04T10:56:14.579Z,820.76
2019-01-04T10:57:14.582Z,820.80
2019-01-04T10:58:14.590Z,820.80
2019-01-04T10:59:14.598Z,820.79
2019-01-04T11:00:14.608Z,820.72
2019-01-04T11:01:14.613Z,820.65
2019-01-04T11:02:14.618Z,820.67
2019-01-04T11:03:14.635Z,820.71
2019-01-04T11:04:14.635Z,820.78
2019-01-04T11:05:14.642Z,820.69
2019-01-04T11:06:14.647Z,820.69
2019-01-04T11:07:14.655Z,820.67
2019-01-04T11:08:14.662Z,820.70
2019-01-04T11:09:14.668Z,820.68
2019-01-04T11:10:14.678Z,820.71
2019-01-04T11:11:14.684Z,820.73
2019-01-04T11:12:15.948Z,820.74
2019-01-04T11:13:14.697Z,820.67
2019-01-04T11:14:14.706Z,820.68
2019-01-04T11:15:14.717Z,820.72
2019-01-04T11:16:14.724Z,820.75
2019-01-04T11:17:14.729Z,820.81
2019-01-04T11:18:14.735Z,820.84
2019-01-04T11:19:14.744Z,820.80
2019-01-04T11:20:14.753Z,820.74
2019-01-04T11:21:14.759Z,820.73
2019-01-04T11:22:14.765Z,820.71
2019-01-04T11:23:14.773Z,820.74
2019-01-04T11:24:14.785Z,820.74
2019-01-04T11:25:14.791Z,820.74
2019-01-04T11:26:14.795Z,820.74
2019-01-04T11:27:14.806Z,820.72
2019-01-04T11:28:14.812Z,820.72
2019-01-04T11:29:14.818Z,820.69
2019-01-04T11:30:14.828Z,820.70
2019-01-04T11:31:14.837Z,820.71
2019-01-04T11:32:14.842Z,820.70
2019-01-04T11:33:14.848Z,820.69
2019-01-04T11:34:14.858Z,820.64
2019-01-04T11:35:14.866Z,820.63
2019-01-04T11:36:14.873Z,820.67
2019-01-04T11:37:14.881Z,820.72
2019-01-04T11:38:14.890Z,820.73
2019-01-04T11:39:14.897Z,820.69
2019-01-04T11:40:14.906Z,820.68
2019-01-04T11:41:14.913Z,820.71
2019-01-04T11:42:14.923Z,820.62
2019-01-04T11:43:14.931Z,820.63
2019-01-04T11:44:14.936Z,820.66
2019-01-04T11:45:14.953Z,820.66
2019-01-04T11:46:14.957Z,820.67
2019-01-04T11:47:20.031Z,820.65
2019-01-04T11:48:14.972Z,820.65
2019-01-04T11:49:14.977Z,820.66
2019-01-04T11:50:14.987Z,820.62
2019-01-04T11:51:14.998Z,820.68
2019-01-04T11:52:15.004Z,820.67
2019-01-04T11:53:15.016Z,820.65
2019-01-04T11:54:15.020Z,820.68
2019-01-04T11:55:15.034Z,820.69
2019-01-04T11:56:15.037Z,820.67
2019-01-04T11:57:15.057Z,820.71
2019-01-04T11:58:15.053Z,820.72
2019-01-04T11:59:15.062Z,820.70
2019-01-04T12:00:15.070Z,820.64
2019-01-04T12:01:15.078Z,820.63
2019-01-04T12:02:15.089Z,820.62
2019-01-04T12:03:15.135Z,820.60
2019-01-04T12:04:15.112Z,820.64
2019-01-04T12:05:15.112Z,820.67
2019-01-04T12:06:15.122Z,820.66
2019-01-04T12:07:15.131Z,820.74
2019-01-04T12:08:15.140Z,820.73
2019-01-04T12:09:15.148Z,820.71
2019-01-04T12:10:15.155Z,820.74
2019-01-04T12:11:15.171Z,820.69
2019-01-04T12:12:15.173Z,820.73
2019-01-04T12:13:15.182Z,820.78
2019-01-04T12:14:15.190Z,820.81
2019-01-04T12:15:15.202Z,820.78
2019-01-04T12:16:15.209Z,820.73
2019-01-04T12:17:15.217Z,820.71
2019-01-04T12:18:15.227Z,820.66
2019-01-04T12:19:15.234Z,820.71
2019-01-04T12:20:15.244Z,820.66
2019-01-04T12:21:15.251Z,820.74
2019-01-04T12:22:15.260Z,820.77
2019-01-04T12:23:15.331Z,820.75
2019-01-04T12:24:15.278Z,820.72
2019-01-04T12:25:15.287Z,820.66
2019-01-04T12:26:15.296Z,820.67
2019-01-04T12:27:15.305Z,820.72
2019-01-04T12:28:15.316Z,820.77